Weather at Sombor Airport [CLOSED]

Public forecast

Using degrees Celsius for public forecast. Weather courtesy of forecast.io.

Closest aviation weather report (METAR) to Sombor Airport

Report is more than 6 hours old.

Closest report is Osijek Airport, 18.7 nm (34.7 km) SW. Retrieved 2022/09/17 19:00 UTC (15 days ago):

LDOS 171900Z 28009KT 9999 -RA SCT007 BKN030 10/09 Q1008

Closest aviation forecast (TAF) to Sombor Airport

Forecast is more than 12 hours old.

Closest forecast is Osijek Airport, 18.7 nm (34.7 km) SW. Retrieved 2022/09/17 18:27 UTC (15 days ago):

TAF LDOS 171725Z 1718/1818 28015KT 9999 SCT007 BKN030 TX18/1811Z TN09/1804Z TEMPO 1718/1800 3000 RA BKN005 BKN030 BECMG 1811/1813 21006KT